createdAt,value
2023-02-25T00:01:39.388Z,52.99
2023-02-25T00:04:06.472Z,52.92
2023-02-25T00:06:33.467Z,53.15
2023-02-25T00:09:01.250Z,52.69
2023-02-25T00:11:28.551Z,53.01
2023-02-25T00:13:55.599Z,52.74
2023-02-25T00:16:24.976Z,52.85
2023-02-25T00:18:56.558Z,53.23
2023-02-25T00:21:24.597Z,53.10
2023-02-25T00:23:53.858Z,53.13
2023-02-25T00:26:22.634Z,52.71
2023-02-25T00:28:50.525Z,52.51
2023-02-25T00:31:23.551Z,52.74
2023-02-25T00:33:51.904Z,52.73
2023-02-25T00:36:21.404Z,53.14
2023-02-25T00:38:56.260Z,53.45
2023-02-25T00:41:27.206Z,54.22
2023-02-25T00:43:57.232Z,53.44
2023-02-25T00:46:25.514Z,53.63
2023-02-25T00:48:53.102Z,53.09
2023-02-25T00:51:25.921Z,52.99
2023-02-25T00:53:54.512Z,52.73
2023-02-25T00:56:21.931Z,52.96
2023-02-25T00:58:50.547Z,52.68
2023-02-25T01:01:25.863Z,53.06
2023-02-25T01:03:54.104Z,53.21
2023-02-25T01:06:21.555Z,53.46
2023-02-25T01:08:49.434Z,53.29
2023-02-25T01:11:21.338Z,53.78
2023-02-25T01:13:49.950Z,53.73
2023-02-25T01:16:20.990Z,53.75
2023-02-25T01:18:51.819Z,53.76
2023-02-25T01:21:30.530Z,53.75
2023-02-25T01:24:12.489Z,53.51
2023-02-25T01:26:44.794Z,53.60
2023-02-25T01:29:18.841Z,54.15
2023-02-25T01:31:46.649Z,54.10
2023-02-25T01:34:17.359Z,53.99
2023-02-25T01:36:44.840Z,54.00
2023-02-25T01:39:13.251Z,53.79
2023-02-25T01:41:40.508Z,53.84
2023-02-25T01:44:14.480Z,53.71
2023-02-25T01:46:43.711Z,53.76
2023-02-25T01:49:41.785Z,53.86
2023-02-25T01:52:13.895Z,53.72
2023-02-25T01:54:42.702Z,53.16
2023-02-25T01:57:11.874Z,52.92
2023-02-25T01:59:41.708Z,52.88
2023-02-25T02:02:10.376Z,52.37
2023-02-25T02:04:38.424Z,52.28
2023-02-25T02:07:07.264Z,52.52
2023-02-25T02:09:35.095Z,53.29
2023-02-25T02:12:04.794Z,53.77
2023-02-25T02:14:38.164Z,53.78
2023-02-25T02:17:32.654Z,54.15
2023-02-25T02:20:13.944Z,54.12
2023-02-25T02:23:07.206Z,54.23
2023-02-25T02:25:53.537Z,54.32
2023-02-25T02:28:47.474Z,54.32
2023-02-25T02:31:46.486Z,54.41
2023-02-25T02:34:26.716Z,54.27
2023-02-25T02:37:19.103Z,54.45
2023-02-25T02:39:58.426Z,54.31
2023-02-25T02:42:56.141Z,54.28
2023-02-25T02:45:25.699Z,54.25
2023-02-25T02:48:19.912Z,54.38
2023-02-25T02:50:52.261Z,54.00
2023-02-25T02:53:28.499Z,54.84
2023-02-25T02:55:59.986Z,54.15
2023-02-25T02:58:38.960Z,54.08
2023-02-25T03:01:11.929Z,54.08
2023-02-25T03:03:44.419Z,54.05
2023-02-25T03:06:16.486Z,53.63
2023-02-25T03:09:06.210Z,53.83
2023-02-25T03:11:35.006Z,53.64
2023-02-25T03:14:02.531Z,53.21
2023-02-25T03:16:37.378Z,53.44
2023-02-25T03:19:21.501Z,53.52
2023-02-25T03:21:54.938Z,53.59
2023-02-25T03:24:35.862Z,55.67
2023-02-25T03:27:23.232Z,54.81
2023-02-25T03:29:53.004Z,54.00
2023-02-25T03:32:21.013Z,54.21
2023-02-25T03:34:50.405Z,54.11
2023-02-25T03:37:31.463Z,53.88
2023-02-25T03:40:08.783Z,54.04
2023-02-25T03:42:36.645Z,54.03
2023-02-25T03:45:07.968Z,53.93
2023-02-25T03:47:38.547Z,53.94
2023-02-25T03:50:08.705Z,53.98
2023-02-25T03:52:39.375Z,53.57
2023-02-25T03:55:15.964Z,53.07
2023-02-25T03:57:46.016Z,52.55
2023-02-25T04:00:41.321Z,51.80
2023-02-25T04:03:08.450Z,50.76
2023-02-25T04:05:36.376Z,50.49
2023-02-25T04:08:03.999Z,50.27
2023-02-25T04:10:34.481Z,50.33
2023-02-25T04:13:01.503Z,49.80
2023-02-25T04:15:29.601Z,48.87
2023-02-25T04:17:56.608Z,48.96
2023-02-25T04:20:23.599Z,48.22
2023-02-25T04:22:50.488Z,47.55
2023-02-25T04:25:17.512Z,46.61
2023-02-25T04:27:44.441Z,46.15
2023-02-25T04:30:12.182Z,45.63
2023-02-25T04:32:39.204Z,45.74
2023-02-25T04:35:10.630Z,44.85
2023-02-25T04:37:38.813Z,43.99
2023-02-25T04:40:12.448Z,43.88
2023-02-25T04:42:40.120Z,43.99
2023-02-25T04:45:09.738Z,43.94
2023-02-25T04:47:37.071Z,43.93
2023-02-25T04:50:05.452Z,43.61
2023-02-25T04:52:32.357Z,43.66
2023-02-25T04:54:59.314Z,44.23
2023-02-25T04:57:26.250Z,43.73
2023-02-25T04:59:53.280Z,43.89
2023-02-25T05:02:20.521Z,44.03
2023-02-25T05:04:49.158Z,44.02
2023-02-25T05:07:16.262Z,43.99
2023-02-25T05:09:43.183Z,44.29
2023-02-25T05:12:10.445Z,44.01
2023-02-25T05:14:38.113Z,44.00
2023-02-25T05:17:05.133Z,43.28
2023-02-25T05:19:32.617Z,44.02
2023-02-25T05:21:59.598Z,43.68
2023-02-25T05:24:26.728Z,44.29
2023-02-25T05:26:54.019Z,45.83
2023-02-25T05:29:21.129Z,46.92
2023-02-25T05:31:49.798Z,47.03
2023-02-25T05:34:17.207Z,47.78
2023-02-25T05:36:44.240Z,46.79
2023-02-25T05:39:13.691Z,46.22
2023-02-25T05:41:41.044Z,46.80
2023-02-25T05:44:08.355Z,45.39
2023-02-25T05:46:35.629Z,45.81
2023-02-25T05:49:02.699Z,44.94
2023-02-25T05:51:29.957Z,44.69
2023-02-25T05:53:57.606Z,44.76
2023-02-25T05:56:26.108Z,44.42
2023-02-25T05:58:54.326Z,44.43
2023-02-25T06:01:24.498Z,44.57
2023-02-25T06:03:52.554Z,43.80
2023-02-25T06:06:23.822Z,42.71
2023-02-25T06:08:51.917Z,42.73
2023-02-25T06:11:28.269Z,43.01
2023-02-25T06:13:56.240Z,42.83
2023-02-25T06:16:26.079Z,42.00
2023-02-25T06:18:53.474Z,41.30
2023-02-25T06:21:20.508Z,41.08
2023-02-25T06:23:50.547Z,40.79
2023-02-25T06:26:18.188Z,39.48
2023-02-25T06:28:45.415Z,38.72
2023-02-25T06:31:15.121Z,38.58
2023-02-25T06:33:42.630Z,38.06
2023-02-25T06:36:10.705Z,38.13
2023-02-25T06:38:37.829Z,37.68
2023-02-25T06:41:15.660Z,37.56
2023-02-25T06:43:42.815Z,37.72
2023-02-25T06:46:12.438Z,37.53
2023-02-25T06:48:39.684Z,37.40
2023-02-25T06:51:10.761Z,37.47
2023-02-25T06:53:42.756Z,37.25
2023-02-25T06:56:12.983Z,36.97
2023-02-25T06:58:40.450Z,37.18
2023-02-25T07:01:09.392Z,36.69
2023-02-25T07:03:36.783Z,36.71
2023-02-25T07:06:04.196Z,36.80
2023-02-25T07:08:31.637Z,36.66
2023-02-25T07:11:29.847Z,36.55
2023-02-25T07:13:57.838Z,37.10
2023-02-25T07:16:25.686Z,36.21
2023-02-25T07:18:52.973Z,37.08
2023-02-25T07:21:20.139Z,37.00
2023-02-25T07:23:47.166Z,36.82
2023-02-25T07:26:15.080Z,37.04
2023-02-25T07:28:42.956Z,37.15
2023-02-25T07:31:17.486Z,36.70
2023-02-25T07:33:44.902Z,36.75
2023-02-25T07:36:12.688Z,38.90
2023-02-25T07:38:40.233Z,38.17
2023-02-25T07:41:09.024Z,39.40
2023-02-25T07:43:36.042Z,38.25
2023-02-25T07:46:04.160Z,37.54
2023-02-25T07:48:31.996Z,36.74
2023-02-25T07:51:13.556Z,36.06
2023-02-25T07:53:40.539Z,35.43
2023-02-25T07:56:09.220Z,35.10
2023-02-25T07:58:36.787Z,34.61
2023-02-25T08:01:21.028Z,34.18
2023-02-25T08:03:49.359Z,33.90
2023-02-25T08:06:16.321Z,34.19
2023-02-25T08:08:43.476Z,34.46
2023-02-25T08:11:12.437Z,34.15
2023-02-25T08:13:39.479Z,34.48
2023-02-25T08:16:08.726Z,34.14
2023-02-25T08:18:36.979Z,34.10
2023-02-25T08:21:04.796Z,33.93
2023-02-25T08:23:31.939Z,33.99
2023-02-25T08:25:59.586Z,34.34
2023-02-25T08:28:31.805Z,34.34
2023-02-25T08:31:00.654Z,34.23
2023-02-25T08:33:30.022Z,34.26
2023-02-25T08:36:05.592Z,34.09
2023-02-25T08:38:32.590Z,33.65
2023-02-25T08:41:00.953Z,33.66
2023-02-25T08:43:28.001Z,34.22
2023-02-25T08:45:56.839Z,34.04
2023-02-25T08:48:24.369Z,34.16
2023-02-25T08:50:51.673Z,34.23
2023-02-25T08:53:19.423Z,33.96
2023-02-25T08:55:47.559Z,34.05
2023-02-25T08:58:14.655Z,34.19
2023-02-25T09:00:41.733Z,33.82
2023-02-25T09:03:09.042Z,34.18
2023-02-25T09:05:38.130Z,34.07
2023-02-25T09:08:05.246Z,33.60
2023-02-25T09:10:48.162Z,33.59
2023-02-25T09:13:17.507Z,33.58
2023-02-25T09:15:44.534Z,33.00
2023-02-25T09:18:12.021Z,32.53
2023-02-25T09:20:39.185Z,32.38
2023-02-25T09:23:06.147Z,32.49
2023-02-25T09:25:33.206Z,31.69
2023-02-25T09:28:00.147Z,31.34
2023-02-25T09:30:27.088Z,31.97
2023-02-25T09:32:54.182Z,31.44
2023-02-25T09:35:21.214Z,31.40
2023-02-25T09:37:48.156Z,30.92
2023-02-25T09:40:19.303Z,30.54
2023-02-25T09:42:53.767Z,30.98
2023-02-25T09:45:24.923Z,29.82
2023-02-25T09:48:00.246Z,29.48
2023-02-25T09:50:33.174Z,28.61
2023-02-25T09:53:32.192Z,28.99
2023-02-25T09:55:59.492Z,29.02
2023-02-25T09:58:46.214Z,28.35
2023-02-25T10:01:34.486Z,28.03
2023-02-25T10:04:17.140Z,27.77
2023-02-25T10:06:48.462Z,28.13
2023-02-25T10:09:25.146Z,27.18
2023-02-25T10:12:01.152Z,27.68
2023-02-25T10:15:12.992Z,26.73
2023-02-25T10:18:11.658Z,26.72
2023-02-25T10:21:25.444Z,26.49
2023-02-25T10:24:09.151Z,26.27
2023-02-25T10:26:45.102Z,25.70
2023-02-25T10:29:30.317Z,25.70
2023-02-25T10:32:00.247Z,26.35
2023-02-25T10:34:29.710Z,26.25
2023-02-25T10:36:59.423Z,26.14
2023-02-25T10:39:28.809Z,26.51
2023-02-25T10:41:56.505Z,25.43
2023-02-25T10:44:23.481Z,25.02
2023-02-25T10:46:55.860Z,24.60
2023-02-25T10:49:28.557Z,23.96
2023-02-25T10:52:00.036Z,24.97
2023-02-25T10:54:28.006Z,24.12
2023-02-25T10:56:55.766Z,24.68
2023-02-25T10:59:35.259Z,24.31
2023-02-25T11:02:02.970Z,23.97
2023-02-25T11:04:36.542Z,24.17
2023-02-25T11:07:34.659Z,23.31
2023-02-25T11:10:18.439Z,23.25
2023-02-25T11:12:47.402Z,23.18
2023-02-25T11:15:44.865Z,23.06
2023-02-25T11:18:29.505Z,22.66
2023-02-25T11:20:59.482Z,22.90
2023-02-25T11:23:35.795Z,22.62
2023-02-25T11:26:04.131Z,23.01
2023-02-25T11:28:41.582Z,23.16
2023-02-25T11:31:22.337Z,22.80
2023-02-25T11:33:57.631Z,22.29
2023-02-25T11:36:29.899Z,22.54
2023-02-25T11:39:15.685Z,22.29
2023-02-25T11:41:47.837Z,21.63
2023-02-25T11:44:27.207Z,21.92
2023-02-25T11:47:07.067Z,21.66
2023-02-25T11:49:49.619Z,21.93
2023-02-25T11:52:34.107Z,21.93
2023-02-25T11:55:12.855Z,21.82
2023-02-25T11:57:59.810Z,22.07
2023-02-25T12:00:36.322Z,21.39
2023-02-25T12:13:53.643Z,21.80
2023-02-25T12:16:32.855Z,21.49
2023-02-25T12:19:05.577Z,21.40
2023-02-25T12:21:38.296Z,20.93
2023-02-25T12:24:37.694Z,20.79
2023-02-25T12:27:24.309Z,20.59
2023-02-25T12:30:28.209Z,20.21
2023-02-25T12:33:03.790Z,20.02
2023-02-25T12:36:09.836Z,19.90
2023-02-25T12:38:51.884Z,19.78
2023-02-25T12:41:33.810Z,19.39
2023-02-25T12:44:06.719Z,19.04
2023-02-25T12:46:42.511Z,19.53
2023-02-25T12:49:12.574Z,19.44
2023-02-25T12:52:03.865Z,20.20
2023-02-25T12:54:39.166Z,19.41
2023-02-25T12:57:39.968Z,19.58
2023-02-25T13:00:43.321Z,19.55
2023-02-25T13:03:33.314Z,19.33
2023-02-25T13:06:11.829Z,19.43
2023-02-25T13:09:19.589Z,18.97
2023-02-25T13:12:17.246Z,19.11
2023-02-25T13:15:08.826Z,18.43
2023-02-25T13:18:07.326Z,18.25
2023-02-25T13:20:45.501Z,17.67
2023-02-25T13:23:31.174Z,17.83
2023-02-25T13:26:00.938Z,18.19
2023-02-25T13:28:52.748Z,17.87
2023-02-25T13:31:38.193Z,18.13
2023-02-25T13:34:23.527Z,18.03
2023-02-25T13:37:30.302Z,16.96
2023-02-25T13:40:31.097Z,17.23
2023-02-25T13:43:01.070Z,16.48
2023-02-25T13:45:38.884Z,16.44
2023-02-25T13:48:17.200Z,16.66
2023-02-25T13:51:15.946Z,17.31
2023-02-25T13:54:24.885Z,17.39
2023-02-25T13:57:16.490Z,17.87
2023-02-25T14:00:03.974Z,18.79
2023-02-25T14:03:15.717Z,18.93
2023-02-25T14:05:57.535Z,19.88
2023-02-25T14:08:40.598Z,19.38
2023-02-25T14:11:23.298Z,19.40
2023-02-25T14:13:56.076Z,19.05
2023-02-25T14:17:10.428Z,19.54
2023-02-25T14:20:21.872Z,19.82
2023-02-25T14:23:11.919Z,20.13
2023-02-25T14:25:58.442Z,20.63
2023-02-25T14:28:57.152Z,21.05
2023-02-25T14:31:47.170Z,21.00
2023-02-25T14:34:23.239Z,21.49
2023-02-25T14:37:02.258Z,21.53
2023-02-25T14:40:19.936Z,22.86
2023-02-25T14:42:55.796Z,22.50
2023-02-25T14:45:28.956Z,23.05
2023-02-25T14:48:10.897Z,23.10
2023-02-25T14:51:07.894Z,23.01
2023-02-25T14:54:08.624Z,23.48
2023-02-25T14:56:47.852Z,23.42
2023-02-25T14:59:40.573Z,23.76
2023-02-25T15:02:16.388Z,24.32
2023-02-25T15:05:20.354Z,23.98
2023-02-25T15:08:19.054Z,24.41
2023-02-25T15:11:15.522Z,24.25
2023-02-25T15:14:20.014Z,24.31
2023-02-25T15:17:18.072Z,24.95
2023-02-25T15:20:00.473Z,24.98
2023-02-25T15:22:33.054Z,24.97
2023-02-25T15:25:21.645Z,25.09
2023-02-25T15:28:00.342Z,25.34
2023-02-25T15:30:29.025Z,25.59
2023-02-25T15:33:14.156Z,25.64
2023-02-25T15:35:41.163Z,25.63
2023-02-25T15:38:38.625Z,26.26
2023-02-25T15:41:34.729Z,26.49
2023-02-25T15:44:22.787Z,26.63
2023-02-25T15:46:50.409Z,26.80
2023-02-25T15:49:17.236Z,26.95
2023-02-25T15:51:59.376Z,26.97
2023-02-25T15:54:32.157Z,26.97
2023-02-25T15:57:01.518Z,27.28
2023-02-25T15:59:47.217Z,27.52
2023-02-25T16:02:29.244Z,27.33
2023-02-25T16:05:05.944Z,27.34
2023-02-25T16:07:37.228Z,28.02
2023-02-25T16:10:09.702Z,27.76
2023-02-25T16:12:38.885Z,27.69
2023-02-25T16:15:06.565Z,27.80
2023-02-25T16:17:35.961Z,27.63
2023-02-25T16:20:28.177Z,27.61
2023-02-25T16:22:59.692Z,27.74
2023-02-25T16:26:16.242Z,27.67
2023-02-25T16:28:59.195Z,27.80
2023-02-25T16:31:29.557Z,27.90
2023-02-25T16:34:19.395Z,28.39
2023-02-25T16:36:51.984Z,28.29
2023-02-25T16:39:23.763Z,28.09
2023-02-25T16:41:55.745Z,28.09
2023-02-25T16:44:31.718Z,28.04
2023-02-25T16:46:58.939Z,28.45
2023-02-25T16:49:47.508Z,28.10
2023-02-25T16:52:37.906Z,28.73
2023-02-25T16:55:12.990Z,28.17
2023-02-25T16:57:40.032Z,28.29
2023-02-25T17:00:15.667Z,27.97
2023-02-25T17:02:53.816Z,28.44
2023-02-25T17:05:25.800Z,28.39
2023-02-25T17:07:59.807Z,28.58
2023-02-25T17:10:53.343Z,29.01
2023-02-25T17:13:26.157Z,28.43
2023-02-25T17:15:53.433Z,28.41
2023-02-25T17:18:24.678Z,28.85
2023-02-25T17:21:00.127Z,28.93
2023-02-25T17:23:27.226Z,28.53
2023-02-25T17:25:55.075Z,28.69
2023-02-25T17:28:25.906Z,30.46
2023-02-25T17:30:53.364Z,31.04
2023-02-25T17:33:27.089Z,30.29
2023-02-25T17:36:01.990Z,29.59
2023-02-25T17:38:29.550Z,29.73
2023-02-25T17:40:56.958Z,29.15
2023-02-25T17:43:38.223Z,28.75
2023-02-25T17:46:24.207Z,28.80
2023-02-25T17:48:55.000Z,28.75
2023-02-25T17:51:34.694Z,28.67
2023-02-25T17:54:22.579Z,28.49
2023-02-25T17:57:01.018Z,28.98
2023-02-25T17:59:28.153Z,28.51
2023-02-25T18:02:00.154Z,28.67
2023-02-25T18:04:40.394Z,28.65
2023-02-25T18:07:19.459Z,28.85
2023-02-25T18:09:46.730Z,28.79
2023-02-25T18:12:26.845Z,28.95
2023-02-25T18:15:00.614Z,28.92
2023-02-25T18:17:31.957Z,29.06
2023-02-25T18:20:08.837Z,28.63
2023-02-25T18:22:45.733Z,29.23
2023-02-25T18:25:36.211Z,29.07
2023-02-25T18:28:05.982Z,29.41
2023-02-25T18:30:33.524Z,29.42
2023-02-25T18:33:00.559Z,29.32
2023-02-25T18:35:29.842Z,29.39
2023-02-25T18:37:58.102Z,29.58
2023-02-25T18:40:30.721Z,29.72
2023-02-25T18:42:59.191Z,29.22
2023-02-25T18:45:27.879Z,29.06
2023-02-25T18:47:57.076Z,28.82
2023-02-25T18:50:24.881Z,28.94
2023-02-25T18:52:51.899Z,29.17
2023-02-25T18:55:23.613Z,28.78
2023-02-25T18:57:50.905Z,29.16
2023-02-25T19:00:20.153Z,29.00
2023-02-25T19:03:05.098Z,29.03
2023-02-25T19:05:32.220Z,29.56
2023-02-25T19:07:59.797Z,29.58
2023-02-25T19:10:30.637Z,29.14
2023-02-25T19:13:06.856Z,29.15
2023-02-25T19:15:34.316Z,29.92
2023-02-25T19:18:01.373Z,29.66
2023-02-25T19:20:28.489Z,29.39
2023-02-25T19:22:55.441Z,29.77
2023-02-25T19:25:26.339Z,30.00
2023-02-25T19:27:54.585Z,30.21
2023-02-25T19:30:25.091Z,30.92
2023-02-25T19:32:52.671Z,30.59
2023-02-25T19:35:19.791Z,31.30
2023-02-25T19:37:46.905Z,31.87
2023-02-25T19:40:16.688Z,32.51
2023-02-25T19:42:44.939Z,32.67
2023-02-25T19:45:13.975Z,34.36
2023-02-25T19:47:41.258Z,34.03
2023-02-25T19:50:08.963Z,35.03
2023-02-25T19:52:36.450Z,35.31
2023-02-25T19:55:05.124Z,35.73
2023-02-25T19:57:32.771Z,34.79
2023-02-25T19:59:59.871Z,34.84
2023-02-25T20:02:26.856Z,35.82
2023-02-25T20:04:53.836Z,35.70
2023-02-25T20:07:20.811Z,35.73
2023-02-25T20:09:47.851Z,36.60
2023-02-25T20:12:15.005Z,36.15
2023-02-25T20:14:42.032Z,36.11
2023-02-25T20:17:09.266Z,36.33
2023-02-25T20:19:36.393Z,37.25
2023-02-25T20:22:06.219Z,36.33
2023-02-25T20:24:34.147Z,37.44
2023-02-25T20:27:01.148Z,36.67
2023-02-25T20:29:28.695Z,36.85
2023-02-25T20:31:58.898Z,37.50
2023-02-25T20:34:27.639Z,37.54
2023-02-25T20:37:06.801Z,37.44
2023-02-25T20:39:39.928Z,37.75
2023-02-25T20:42:12.848Z,37.49
2023-02-25T20:44:40.752Z,37.19
2023-02-25T20:47:13.304Z,37.93
2023-02-25T20:49:40.717Z,37.70
2023-02-25T20:52:07.844Z,39.32
2023-02-25T20:54:34.803Z,39.37
2023-02-25T20:57:02.515Z,39.29
2023-02-25T20:59:29.565Z,40.12
2023-02-25T21:01:57.951Z,40.21
2023-02-25T21:04:24.953Z,40.50
2023-02-25T21:06:51.945Z,40.14
2023-02-25T21:09:18.865Z,41.26
2023-02-25T21:11:45.986Z,41.26
2023-02-25T21:14:12.913Z,40.45
2023-02-25T21:16:39.908Z,40.83
2023-02-25T21:19:07.818Z,40.89
2023-02-25T21:21:37.451Z,41.30
2023-02-25T21:24:15.302Z,41.59
2023-02-25T21:26:43.244Z,41.40
2023-02-25T21:29:11.077Z,41.30
2023-02-25T21:31:38.634Z,41.32
2023-02-25T21:34:06.352Z,41.12
2023-02-25T21:36:34.174Z,40.64
2023-02-25T21:39:01.184Z,40.75
2023-02-25T21:41:28.174Z,41.26
2023-02-25T21:43:55.954Z,41.04
2023-02-25T21:46:23.405Z,41.18
2023-02-25T21:48:53.363Z,41.30
2023-02-25T21:51:22.804Z,41.28
2023-02-25T21:53:54.194Z,41.69
2023-02-25T21:56:21.625Z,42.97
2023-02-25T21:58:49.498Z,44.43
2023-02-25T22:01:21.304Z,42.79
2023-02-25T22:03:48.779Z,43.04
2023-02-25T22:06:16.190Z,43.24
2023-02-25T22:08:45.707Z,44.20
2023-02-25T22:11:18.968Z,47.75
2023-02-25T22:13:46.644Z,46.46
2023-02-25T22:16:15.312Z,47.63
2023-02-25T22:18:42.950Z,50.69
2023-02-25T22:21:17.466Z,50.77
2023-02-25T22:23:45.459Z,50.96
2023-02-25T22:26:15.099Z,53.15
2023-02-25T22:28:43.768Z,50.33
2023-02-25T22:31:12.667Z,53.53
2023-02-25T22:33:40.235Z,50.80
2023-02-25T22:36:08.309Z,51.60
2023-02-25T22:38:38.100Z,52.46
2023-02-25T22:41:06.531Z,53.61
2023-02-25T22:43:33.982Z,54.53
2023-02-25T22:46:15.416Z,55.00
2023-02-25T22:48:44.780Z,53.40
2023-02-25T22:51:12.551Z,53.56
2023-02-25T22:53:40.966Z,54.76
2023-02-25T22:56:10.645Z,54.49
2023-02-25T22:58:40.673Z,54.33
2023-02-25T23:01:09.415Z,52.91
2023-02-25T23:03:36.642Z,53.76
2023-02-25T23:06:03.821Z,54.38
2023-02-25T23:08:31.015Z,54.62
2023-02-25T23:11:18.355Z,55.51
2023-02-25T23:13:50.572Z,56.55
2023-02-25T23:16:27.553Z,55.97
2023-02-25T23:19:00.290Z,54.44
2023-02-25T23:21:28.917Z,54.86
2023-02-25T23:23:58.409Z,55.09
2023-02-25T23:26:28.803Z,55.86
2023-02-25T23:29:04.140Z,56.26
2023-02-25T23:31:33.987Z,56.44
2023-02-25T23:34:04.055Z,57.03
2023-02-25T23:36:31.394Z,57.84
2023-02-25T23:39:02.169Z,58.73
2023-02-25T23:41:30.172Z,58.53
2023-02-25T23:44:00.745Z,59.38
2023-02-25T23:46:30.492Z,60.32
2023-02-25T23:49:03.346Z,59.91
2023-02-25T23:51:30.527Z,60.40
2023-02-25T23:54:00.233Z,59.89
2023-02-25T23:56:28.045Z,59.96
2023-02-25T23:58:55.975Z,59.78
